createdAt,value
2023-01-02T00:01:44.543Z,4.68
2023-01-02T00:06:45.960Z,4.20
2023-01-02T00:11:47.391Z,3.95
2023-01-02T00:16:48.856Z,4.03
2023-01-02T00:21:50.305Z,4.15
2023-01-02T00:26:51.797Z,4.45
2023-01-02T00:31:53.298Z,5.00
2023-01-02T00:36:54.699Z,4.65
2023-01-02T00:42:15.026Z,5.43
2023-01-02T00:47:16.486Z,5.32
2023-01-02T00:52:17.876Z,5.22
2023-01-02T00:57:19.365Z,5.65
2023-01-02T01:02:20.887Z,4.80
2023-01-02T01:07:22.439Z,5.53
2023-01-02T01:12:23.861Z,5.78
2023-01-02T01:17:25.311Z,7.15
2023-01-02T01:22:26.833Z,7.07
2023-01-02T01:27:28.256Z,7.07
2023-01-02T01:32:29.747Z,8.55
2023-01-02T01:37:31.179Z,8.07
2023-01-02T01:42:33.152Z,7.95
2023-01-02T01:47:40.365Z,7.85
2023-01-02T01:52:44.176Z,8.40
2023-01-02T01:57:54.058Z,7.70
2023-01-02T02:02:59.639Z,7.72
2023-01-02T02:08:12.434Z,8.05
2023-01-02T02:13:14.250Z,7.47
2023-01-02T02:18:15.712Z,7.22
2023-01-02T02:23:17.125Z,7.93
2023-01-02T02:28:24.459Z,8.18
2023-01-02T02:33:41.396Z,7.03
2023-01-02T02:39:05.998Z,7.50
2023-01-02T02:44:07.426Z,7.13
2023-01-02T02:49:27.630Z,7.03
2023-01-02T02:59:30.723Z,7.10
2023-01-02T03:04:33.466Z,8.48
2023-01-02T03:09:43.880Z,7.88
2023-01-02T03:14:51.369Z,8.23
2023-01-02T03:19:57.725Z,7.72
2023-01-02T03:24:59.432Z,7.90
2023-01-02T03:30:09.209Z,8.27
2023-01-02T03:40:14.858Z,8.48
2023-01-02T03:45:18.147Z,8.10
2023-01-02T03:50:25.213Z,8.13
2023-01-02T03:55:27.458Z,8.57
2023-01-02T04:00:55.447Z,8.40
2023-01-02T04:06:03.912Z,8.45
2023-01-02T04:11:06.634Z,8.35
2023-01-02T04:16:10.284Z,8.10
2023-01-02T04:21:13.446Z,6.80
2023-01-02T04:26:17.674Z,7.90
2023-01-02T04:31:26.836Z,7.68
2023-01-02T04:36:28.409Z,7.85
2023-01-02T04:41:29.908Z,7.80
2023-01-02T04:46:31.372Z,8.95
2023-01-02T04:51:32.940Z,8.20
2023-01-02T04:56:34.380Z,8.75
2023-01-02T05:01:35.878Z,9.00
2023-01-02T05:06:37.444Z,7.65
2023-01-02T05:11:38.916Z,3.80
2023-01-02T05:22:33.130Z,3.80
2023-01-02T05:27:34.553Z,3.58
2023-01-02T05:32:36.095Z,4.03
2023-01-02T05:37:37.543Z,3.58
2023-01-02T05:42:39.015Z,2.90
2023-01-02T05:47:40.407Z,2.85
2023-01-02T05:52:45.867Z,2.67
2023-01-02T05:57:47.641Z,2.95
2023-01-02T06:02:49.177Z,2.83
2023-01-02T06:07:50.728Z,2.30
2023-01-02T06:12:52.158Z,2.70
2023-01-02T06:17:53.584Z,2.42
2023-01-02T06:22:55.390Z,2.40
2023-01-02T06:27:56.794Z,2.22
2023-01-02T06:32:58.376Z,1.90
2023-01-02T06:37:59.828Z,1.85
2023-01-02T06:43:01.852Z,1.75
2023-01-02T06:48:03.323Z,2.00
2023-01-02T06:53:04.783Z,1.42
2023-01-02T06:58:10.985Z,1.52
2023-01-02T07:03:13.973Z,1.67
2023-01-02T07:08:15.397Z,1.92
2023-01-02T07:13:16.845Z,1.60
2023-01-02T07:18:18.238Z,1.40
2023-01-02T07:23:19.669Z,1.30
2023-01-02T07:28:21.574Z,1.50
2023-01-02T07:33:23.045Z,1.65
2023-01-02T07:38:24.527Z,1.65
2023-01-02T07:43:26.217Z,1.65
2023-01-02T07:48:28.859Z,1.63
2023-01-02T07:53:30.367Z,1.48
2023-01-02T07:58:31.904Z,1.58
2023-01-02T08:03:33.792Z,1.67
2023-01-02T08:08:35.824Z,2.00
2023-01-02T08:13:37.294Z,2.40
2023-01-02T08:18:38.819Z,2.55
2023-01-02T08:23:40.228Z,2.38
2023-01-02T08:28:41.949Z,2.95
2023-01-02T08:33:43.405Z,2.33
2023-01-02T08:38:44.831Z,2.40
2023-01-02T08:43:46.224Z,1.98
2023-01-02T08:48:47.672Z,1.75
2023-01-02T08:53:49.111Z,1.92
2023-01-02T08:59:00.645Z,1.90
2023-01-02T09:04:09.508Z,1.92
2023-01-02T09:09:14.746Z,2.05
2023-01-02T09:14:16.830Z,1.80
2023-01-02T09:19:18.625Z,1.70
2023-01-02T09:24:20.086Z,1.63
2023-01-02T09:29:21.514Z,1.60
2023-01-02T09:34:22.967Z,1.90
2023-01-02T09:39:30.270Z,1.70
2023-01-02T09:44:42.561Z,1.50
2023-01-02T09:49:46.033Z,1.77
2023-01-02T09:54:47.576Z,2.03
2023-01-02T09:59:55.159Z,1.73
2023-01-02T10:05:03.257Z,1.40
2023-01-02T10:10:07.598Z,1.70
2023-01-02T10:15:15.897Z,1.63
2023-01-02T10:20:23.996Z,1.58
2023-01-02T10:25:38.933Z,1.83
2023-01-02T10:30:42.808Z,1.42
2023-01-02T10:35:47.616Z,1.50
2023-01-02T10:40:50.768Z,1.90
2023-01-02T10:45:52.351Z,1.75
2023-01-02T10:50:56.125Z,1.85
2023-01-02T10:56:00.943Z,1.85
2023-01-02T11:01:08.547Z,1.75
2023-01-02T11:06:35.264Z,2.15
2023-01-02T11:16:42.114Z,1.92
2023-01-02T11:21:43.983Z,2.20
2023-01-02T11:26:47.626Z,2.22
2023-01-02T11:31:57.429Z,2.85
2023-01-02T11:37:03.809Z,2.35
2023-01-02T11:42:27.235Z,2.75
2023-01-02T11:47:37.738Z,2.38
2023-01-02T11:52:46.350Z,2.40
2023-01-02T11:58:00.773Z,2.05
2023-01-02T12:03:07.104Z,2.47
2023-01-02T12:08:16.824Z,2.40
2023-01-02T12:13:18.262Z,2.35
2023-01-02T12:18:30.087Z,3.20
2023-01-02T12:23:31.580Z,2.10
2023-01-02T12:28:39.636Z,1.88
2023-01-02T12:33:45.856Z,2.00
2023-01-02T12:39:13.333Z,2.35
2023-01-02T12:44:14.799Z,2.58
2023-01-02T12:49:22.147Z,2.10
2023-01-02T12:54:33.827Z,2.28
2023-01-02T12:59:41.109Z,2.15
2023-01-02T13:04:46.656Z,2.40
2023-01-02T13:09:50.273Z,2.55
2023-01-02T13:14:57.585Z,2.60
2023-01-02T13:20:03.734Z,2.63
2023-01-02T13:25:05.479Z,2.00
2023-01-02T13:30:07.166Z,2.53
2023-01-02T13:35:10.792Z,2.20
2023-01-02T13:40:19.200Z,2.35
2023-01-02T13:45:25.822Z,2.38
2023-01-02T13:50:37.685Z,2.53
2023-01-02T13:55:59.389Z,2.63
2023-01-02T14:01:20.967Z,3.00
2023-01-02T14:06:30.468Z,2.88
2023-01-02T14:11:56.055Z,2.85
2023-01-02T14:17:14.163Z,2.58
2023-01-02T14:22:16.938Z,2.25
2023-01-02T14:27:21.512Z,2.00
2023-01-02T14:32:35.304Z,2.10
2023-01-02T14:37:41.088Z,2.30
2023-01-02T14:43:01.729Z,2.20
2023-01-02T14:48:07.928Z,2.35
2023-01-02T14:53:20.451Z,2.05
2023-01-02T14:58:28.019Z,2.63
2023-01-02T15:03:32.767Z,2.42
2023-01-02T15:08:42.604Z,2.40
2023-01-02T15:14:03.645Z,2.60
2023-01-02T15:19:12.216Z,1.77
2023-01-02T15:24:21.298Z,2.30
2023-01-02T15:29:24.444Z,2.10
2023-01-02T15:34:30.391Z,2.58
2023-01-02T15:39:37.882Z,2.97
2023-01-02T15:50:24.775Z,3.00
2023-01-02T15:55:28.409Z,3.05
2023-01-02T16:00:31.571Z,3.30
2023-01-02T16:05:54.303Z,4.43
2023-01-02T16:11:01.725Z,3.47
2023-01-02T16:16:16.068Z,4.10
2023-01-02T16:21:18.867Z,3.90
2023-01-02T16:26:21.202Z,4.07
2023-01-02T16:31:23.138Z,3.70
2023-01-02T16:36:25.642Z,4.60
2023-01-02T16:41:35.169Z,4.03
2023-01-02T16:46:36.712Z,3.83
2023-01-02T16:51:38.130Z,3.42
2023-01-02T16:56:39.612Z,6.40
2023-01-02T17:01:41.156Z,4.72
2023-01-02T17:06:43.008Z,4.03
2023-01-02T17:12:00.357Z,4.50
2023-01-02T17:17:02.151Z,3.97
2023-01-02T17:22:03.583Z,3.97
2023-01-02T17:27:05.019Z,3.95
2023-01-02T17:32:06.590Z,3.80
2023-01-02T17:37:08.119Z,3.65
2023-01-02T17:42:11.501Z,3.58
2023-01-02T17:52:35.844Z,3.50
2023-01-02T17:57:38.377Z,3.00
2023-01-02T18:02:40.387Z,3.83
2023-01-02T18:07:41.914Z,3.50
2023-01-02T18:12:43.352Z,4.00
2023-01-02T18:17:44.970Z,4.18
2023-01-02T18:22:49.989Z,3.85
2023-01-02T18:27:55.791Z,4.03
2023-01-02T18:33:00.644Z,4.30
2023-01-02T18:38:06.513Z,6.10
2023-01-02T18:43:22.942Z,5.10
2023-01-02T18:48:24.461Z,4.95
2023-01-02T18:53:26.717Z,4.00
2023-01-02T18:58:43.447Z,3.55
2023-01-02T19:03:46.873Z,4.20
2023-01-02T19:08:48.403Z,4.30
2023-01-02T19:13:55.195Z,3.75
2023-01-02T19:18:59.989Z,3.90
2023-01-02T19:24:05.042Z,3.60
2023-01-02T19:29:09.617Z,3.72
2023-01-02T19:34:23.149Z,3.45
2023-01-02T19:39:26.612Z,7.25
2023-01-02T19:44:28.084Z,5.72
2023-01-02T19:49:29.608Z,4.60
2023-01-02T19:54:31.026Z,4.30
2023-01-02T19:59:35.035Z,5.30
2023-01-02T20:09:59.999Z,4.30
2023-01-02T20:15:03.647Z,4.53
2023-01-02T20:20:06.375Z,4.65
2023-01-02T20:25:07.924Z,4.05
2023-01-02T20:30:10.349Z,4.10
2023-01-02T20:35:13.597Z,4.03
2023-01-02T20:40:15.119Z,4.45
2023-01-02T20:45:16.680Z,4.38
2023-01-02T20:50:18.239Z,3.70
2023-01-02T20:55:19.920Z,4.70
2023-01-02T21:00:21.421Z,4.20
2023-01-02T21:05:22.831Z,4.57
2023-01-02T21:10:24.280Z,4.95
2023-01-02T21:15:49.424Z,6.93
2023-01-02T21:20:52.380Z,6.65
2023-01-02T21:25:54.097Z,5.72
2023-01-02T21:30:55.743Z,6.40
2023-01-02T21:35:58.745Z,5.70
2023-01-02T21:41:18.839Z,5.85
2023-01-02T21:46:20.349Z,4.95
2023-01-02T21:51:22.398Z,3.90
2023-01-02T21:56:25.838Z,3.55
2023-01-02T22:01:27.487Z,3.30
2023-01-02T22:06:34.076Z,3.40
2023-01-02T22:11:54.379Z,2.92
2023-01-02T22:21:57.457Z,2.58
2023-01-02T22:27:01.119Z,2.88
2023-01-02T22:32:03.885Z,2.60
2023-01-02T22:37:05.565Z,3.38
2023-01-02T22:42:59.035Z,3.00
2023-01-02T22:47:49.637Z,3.20
2023-01-02T22:52:51.361Z,3.00
2023-01-02T22:57:52.869Z,2.60
2023-01-02T23:02:54.420Z,2.72
2023-01-02T23:07:55.867Z,2.60
2023-01-02T23:12:57.394Z,2.95
2023-01-02T23:18:17.301Z,3.30
2023-01-02T23:23:18.729Z,3.08
2023-01-02T23:28:47.384Z,2.45
2023-01-02T23:33:41.556Z,2.13
2023-01-02T23:38:43.226Z,2.53
2023-01-02T23:43:44.719Z,2.63
2023-01-02T23:48:46.220Z,2.45
2023-01-02T23:53:47.695Z,2.08
2023-01-02T23:58:50.074Z,2.10
